Time;durP1;ratioP1;P1;durP2;ratioP2;P2;SDS_P1;SDS_P2;PMS_P1;PMS_P2;Temp;Humidity;BMP_temperature;BMP_pressure;BME280_temperature;BME280_humidity;BME280_pressure;Samples;Min_cycle;Max_cycle;Signal;HPM_P1;HPM_P2
2021/01/25 00:06:44;;;;;;;5.25;4.65;;;;;;;;;;4189346;32;20140;-58
2021/01/25 00:09:10;;;;;;;5.25;4.60;;;;;;;;;;4176535;34;20528;-59
2021/01/25 00:11:36;;;;;;;5.10;4.50;;;;;;;;;;4191509;34;20114;-59
2021/01/25 00:14:02;;;;;;;5.30;4.62;;;;;;;;;;4184852;34;20205;-59
2021/01/25 00:16:27;;;;;;;7.40;4.72;;;;;;;;;;4192065;34;20217;-58
2021/01/25 00:18:53;;;;;;;6.87;4.80;;;;;;;;;;4205695;34;20110;-59
2021/01/25 00:21:20;;;;;;;5.70;5.10;;;;;;;;;;4205577;34;20132;-59
2021/01/25 00:23:46;;;;;;;5.18;4.43;;;;;;;;;;4192891;34;20508;-59
2021/01/25 00:26:12;;;;;;;6.22;5.05;;;;;;;;;;4191752;34;20106;-58
2021/01/25 00:28:38;;;;;;;6.47;5.32;;;;;;;;;;4191704;34;20142;-58
2021/01/25 00:31:04;;;;;;;6.93;5.12;;;;;;;;;;4191839;34;20127;-59
2021/01/25 00:33:30;;;;;;;6.90;5.65;;;;;;;;;;4178836;34;20111;-59
2021/01/25 00:35:55;;;;;;;7.55;6.22;;;;;;;;;;4191577;34;20160;-58
2021/01/25 00:38:21;;;;;;;7.30;5.85;;;;;;;;;;4194817;34;20097;-58
2021/01/25 00:40:47;;;;;;;8.35;5.97;;;;;;;;;;4202889;34;20274;-58
2021/01/25 00:43:13;;;;;;;5.90;5.30;;;;;;;;;;4192124;34;20193;-58
2021/01/25 00:45:39;;;;;;;7.32;5.90;;;;;;;;;;4194072;34;20132;-58
2021/01/25 00:48:05;;;;;;;8.27;6.37;;;;;;;;;;4205317;34;20118;-59
2021/01/25 00:50:31;;;;;;;6.60;5.93;;;;;;;;;;4205331;34;20141;-58
2021/01/25 00:52:57;;;;;;;6.40;5.72;;;;;;;;;;4205267;34;20545;-58
2021/01/25 00:55:23;;;;;;;6.82;5.75;;;;;;;;;;4195765;34;20130;-58
2021/01/25 00:57:49;;;;;;;7.90;6.37;;;;;;;;;;4191467;34;20106;-58
2021/01/25 01:00:15;;;;;;;6.65;6.00;;;;;;;;;;4191648;34;20133;-59
2021/01/25 01:02:41;;;;;;;6.85;6.15;;;;;;;;;;4191689;34;20509;-58
2021/01/25 01:05:08;;;;;;;6.30;5.60;;;;;;;;;;4178195;34;20118;-58
2021/01/25 01:07:34;;;;;;;7.00;6.00;;;;;;;;;;4178566;34;20200;-58
2021/01/25 01:10:00;;;;;;;6.65;6.00;;;;;;;;;;4178809;34;20229;-58
2021/01/25 01:12:26;;;;;;;6.80;6.07;;;;;;;;;;4200642;34;20174;-59
2021/01/25 01:14:52;;;;;;;6.53;5.65;;;;;;;;;;4205365;34;20104;-58
2021/01/25 01:17:18;;;;;;;7.15;6.22;;;;;;;;;;4205039;34;20498;-59
2021/01/25 01:19:44;;;;;;;8.18;5.72;;;;;;;;;;4204917;34;20106;-58
2021/01/25 01:22:10;;;;;;;6.95;6.25;;;;;;;;;;4192179;34;20200;-58
2021/01/25 01:24:36;;;;;;;11.43;8.88;;;;;;;;;;4192065;34;20113;-59
2021/01/25 01:27:03;;;;;;;6.60;5.80;;;;;;;;;;4204218;34;20105;-58
2021/01/25 01:29:28;;;;;;;7.35;6.15;;;;;;;;;;4191816;34;20192;-59
2021/01/25 01:31:54;;;;;;;6.35;5.62;;;;;;;;;;4192138;34;20094;-59
2021/01/25 01:34:20;;;;;;;7.35;5.68;;;;;;;;;;4180626;34;20086;-58
2021/01/25 01:36:46;;;;;;;6.85;5.68;;;;;;;;;;4204977;34;20122;-58
2021/01/25 01:39:12;;;;;;;6.68;5.82;;;;;;;;;;4198054;34;20523;-59
2021/01/25 01:41:38;;;;;;;5.75;5.15;;;;;;;;;;4191023;34;20124;-58
2021/01/25 01:44:07;;;;;;;7.62;5.72;;;;;;;;;;4191134;34;20101;-58
2021/01/25 01:46:34;;;;;;;6.00;5.40;;;;;;;;;;4178376;34;20137;-58
2021/01/25 01:49:00;;;;;;;6.93;5.97;;;;;;;;;;4190969;34;20090;-59
2021/01/25 01:51:26;;;;;;;7.18;5.87;;;;;;;;;;4166661;34;20125;-58
2021/01/25 01:53:52;;;;;;;6.15;5.47;;;;;;;;;;4178133;34;20477;-58
2021/01/25 01:56:18;;;;;;;7.05;5.85;;;;;;;;;;4167133;34;20190;-58
2021/01/25 01:58:44;;;;;;;6.87;6.12;;;;;;;;;;4191160;34;20193;-58
2021/01/25 02:01:09;;;;;;;6.85;6.18;;;;;;;;;;4190890;34;20226;-58
2021/01/25 02:03:35;;;;;;;6.90;6.20;;;;;;;;;;4178103;34;20129;-59
2021/01/25 02:06:01;;;;;;;8.27;6.70;;;;;;;;;;4190674;34;20114;-58
2021/01/25 02:08:27;;;;;;;6.72;6.00;;;;;;;;;;4190944;34;20095;-58
2021/01/25 02:10:54;;;;;;;8.63;6.97;;;;;;;;;;4177948;34;20108;-59
2021/01/25 02:13:20;;;;;;;8.30;6.70;;;;;;;;;;4184773;34;20122;-58
2021/01/25 02:15:46;;;;;;;8.23;7.43;;;;;;;;;;4169194;34;20601;-59
2021/01/25 02:18:12;;;;;;;7.28;6.47;;;;;;;;;;4204514;34;20656;-59
2021/01/25 02:20:42;;;;;;;7.85;7.00;;;;;;;;;;4191602;34;20105;-58
2021/01/25 02:23:37;;;;;;;7.78;6.62;;;;;;;;;;4204544;34;20132;-58
2021/01/25 02:26:44;;;;;;;8.00;7.20;;;;;;;;;;4198306;34;20291;-59
2021/01/25 02:29:10;;;;;;;7.03;6.10;;;;;;;;;;4179997;34;20446;-59
2021/01/25 02:31:36;;;;;;;7.72;6.57;;;;;;;;;;4204382;34;20118;-58
2021/01/25 02:34:02;;;;;;;7.18;6.47;;;;;;;;;;4191501;34;20217;-59
2021/01/25 02:36:28;;;;;;;7.90;7.03;;;;;;;;;;4191620;34;20499;-59
2021/01/25 02:38:54;;;;;;;8.68;6.95;;;;;;;;;;4180922;34;20109;-58
2021/01/25 02:41:24;;;;;;;7.25;6.43;;;;;;;;;;4195478;34;20118;-65
2021/01/25 02:43:51;;;;;;;7.18;6.47;;;;;;;;;;4168511;34;20545;-59
2021/01/25 02:46:17;;;;;;;9.07;7.68;;;;;;;;;;4168725;34;20095;-59
2021/01/25 02:48:43;;;;;;;7.90;6.85;;;;;;;;;;4168358;34;20137;-59
2021/01/25 02:51:08;;;;;;;8.60;7.70;;;;;;;;;;4192458;34;20486;-63
2021/01/25 02:53:34;;;;;;;9.80;7.65;;;;;;;;;;4192529;34;20564;-59
2021/01/25 02:56:00;;;;;;;8.77;7.82;;;;;;;;;;4192414;34;20191;-58
2021/01/25 02:58:26;;;;;;;9.38;8.10;;;;;;;;;;4179712;34;20189;-63
2021/01/25 03:00:52;;;;;;;9.60;7.43;;;;;;;;;;4156878;34;20533;-59
2021/01/25 03:03:19;;;;;;;8.65;7.72;;;;;;;;;;4192223;34;20091;-64
2021/01/25 03:05:45;;;;;;;10.20;7.80;;;;;;;;;;4168397;34;20134;-57
2021/01/25 03:08:11;;;;;;;8.90;7.90;;;;;;;;;;4179843;34;20116;-59
2021/01/25 03:10:38;;;;;;;9.68;8.05;;;;;;;;;;4179592;34;20126;-58
2021/01/25 03:13:04;;;;;;;10.02;8.82;;;;;;;;;;4192495;34;20137;-58
2021/01/25 03:15:30;;;;;;;10.73;9.43;;;;;;;;;;4192252;34;20114;-57
2021/01/25 03:17:56;;;;;;;11.30;10.10;;;;;;;;;;4179462;34;20117;-61
2021/01/25 03:20:22;;;;;;;11.27;9.23;;;;;;;;;;4192160;34;20101;-58
2021/01/25 03:22:47;;;;;;;10.95;9.07;;;;;;;;;;4192178;34;20455;-58
2021/01/25 03:25:13;;;;;;;11.10;9.05;;;;;;;;;;4179209;34;20205;-59
2021/01/25 03:27:39;;;;;;;12.07;9.80;;;;;;;;;;4192174;34;20110;-59
2021/01/25 03:30:12;;;;;;;11.02;9.82;;;;;;;;;;4168174;34;20126;-59
2021/01/25 03:32:39;;;;;;;10.15;9.02;;;;;;;;;;4192122;34;20129;-59
2021/01/25 03:35:06;;;;;;;11.52;9.60;;;;;;;;;;4192207;34;20130;-59
2021/01/25 03:37:32;;;;;;;11.27;9.43;;;;;;;;;;4179383;34;20120;-59
2021/01/25 03:39:58;;;;;;;13.23;9.40;;;;;;;;;;4191953;34;20111;-58
2021/01/25 03:42:24;;;;;;;10.80;8.93;;;;;;;;;;4179322;34;20522;-58
2021/01/25 03:44:51;;;;;;;12.30;9.75;;;;;;;;;;4192225;34;20121;-58
2021/01/25 03:47:17;;;;;;;12.77;9.98;;;;;;;;;;4191982;34;20103;-58
2021/01/25 03:49:42;;;;;;;12.55;9.82;;;;;;;;;;4191420;34;20126;-58
2021/01/25 03:52:08;;;;;;;12.73;9.77;;;;;;;;;;4178721;34;20189;-57
2021/01/25 03:54:34;;;;;;;11.05;9.77;;;;;;;;;;4192086;34;20257;-56
2021/01/25 03:57:02;;;;;;;13.20;9.70;;;;;;;;;;4191904;34;20122;-59
2021/01/25 03:59:31;;;;;;;11.60;9.30;;;;;;;;;;4179082;34;20086;-57
2021/01/25 04:01:57;;;;;;;11.85;10.20;;;;;;;;;;4191844;34;20230;-58
2021/01/25 04:04:23;;;;;;;12.88;10.52;;;;;;;;;;4191364;34;20532;-58
2021/01/25 04:06:49;;;;;;;11.70;8.80;;;;;;;;;;4179102;34;20134;-57
2021/01/25 04:09:16;;;;;;;13.70;10.68;;;;;;;;;;4191749;34;20507;-59
2021/01/25 04:11:45;;;;;;;11.63;9.82;;;;;;;;;;4191843;34;20506;-55
2021/01/25 04:14:10;;;;;;;12.88;10.40;;;;;;;;;;4191975;34;20427;-56
2021/01/25 04:16:37;;;;;;;13.77;10.45;;;;;;;;;;4191726;34;20182;-55
2021/01/25 04:19:04;;;;;;;11.40;9.50;;;;;;;;;;4179052;34;20106;-56
2021/01/25 04:21:30;;;;;;;11.63;10.02;;;;;;;;;;4191472;34;20125;-55
2021/01/25 04:23:56;;;;;;;14.13;10.38;;;;;;;;;;4191657;34;20693;-56
2021/01/25 04:26:22;;;;;;;11.88;9.73;;;;;;;;;;4191467;34;20202;-55
2021/01/25 04:28:48;;;;;;;12.73;9.57;;;;;;;;;;4191490;34;20098;-56
2021/01/25 04:31:14;;;;;;;15.20;11.02;;;;;;;;;;4191608;34;20125;-55
2021/01/25 04:33:40;;;;;;;12.55;9.65;;;;;;;;;;4191575;34;20193;-56
2021/01/25 04:36:06;;;;;;;11.85;10.18;;;;;;;;;;4191851;34;20094;-56
2021/01/25 04:38:32;;;;;;;12.85;10.05;;;;;;;;;;4191477;34;20165;-55
2021/01/25 04:40:58;;;;;;;10.98;9.75;;;;;;;;;;4191251;34;20118;-56
2021/01/25 04:43:25;;;;;;;11.68;9.68;;;;;;;;;;4191395;34;20225;-55
2021/01/25 04:45:51;;;;;;;11.77;10.30;;;;;;;;;;4167485;34;20173;-55
2021/01/25 04:48:17;;;;;;;13.48;10.43;;;;;;;;;;4178870;34;20095;-56
2021/01/25 04:50:43;;;;;;;17.17;10.88;;;;;;;;;;4191472;34;20094;-57
2021/01/25 04:53:09;;;;;;;14.25;10.05;;;;;;;;;;4178630;34;20118;-56
2021/01/25 04:55:35;;;;;;;16.75;10.60;;;;;;;;;;4167072;34;20129;-56
2021/01/25 04:58:01;;;;;;;15.43;11.48;;;;;;;;;;4178430;34;20201;-56
2021/01/25 05:00:27;;;;;;;12.10;10.10;;;;;;;;;;4178128;34;20114;-56
2021/01/25 05:02:53;;;;;;;13.38;9.70;;;;;;;;;;4177920;34;20444;-55
2021/01/25 05:05:19;;;;;;;13.07;10.85;;;;;;;;;;4178105;34;20616;-57
2021/01/25 05:07:45;;;;;;;11.73;9.73;;;;;;;;;;4191125;34;20136;-57
2021/01/25 05:10:11;;;;;;;12.65;9.73;;;;;;;;;;4190895;34;20129;-57
2021/01/25 05:12:45;;;;;;;11.23;9.73;;;;;;;;;;4178254;34;20475;-58
2021/01/25 05:15:11;;;;;;;11.38;8.63;;;;;;;;;;4190980;34;20173;-57
2021/01/25 05:17:37;;;;;;;11.93;9.25;;;;;;;;;;4191156;34;20117;-57
2021/01/25 05:20:07;;;;;;;9.88;8.80;;;;;;;;;;4191068;34;20105;-57
2021/01/25 05:22:38;;;;;;;13.15;9.52;;;;;;;;;;4191082;34;20111;-57
2021/01/25 05:25:04;;;;;;;10.80;8.32;;;;;;;;;;4191249;34;20129;-58
2021/01/25 05:27:30;;;;;;;12.95;8.60;;;;;;;;;;4191123;34;20114;-58
2021/01/25 05:30:12;;;;;;;10.10;8.32;;;;;;;;;;4191125;34;20140;-57
2021/01/25 05:32:48;;;;;;;10.95;9.02;;;;;;;;;;4191085;34;20193;-57
2021/01/25 05:35:19;;;;;;;11.55;8.63;;;;;;;;;;4190931;34;20467;-57
2021/01/25 05:38:10;;;;;;;10.35;8.55;;;;;;;;;;4191017;34;20110;-58
2021/01/25 05:40:37;;;;;;;10.15;9.00;;;;;;;;;;4182613;34;20114;-57
2021/01/25 05:43:13;;;;;;;9.77;8.25;;;;;;;;;;4190989;34;20125;-58
2021/01/25 05:45:39;;;;;;;9.32;7.72;;;;;;;;;;4166724;34;20559;-57
2021/01/25 05:48:05;;;;;;;9.27;8.32;;;;;;;;;;4177968;34;20186;-57
2021/01/25 05:50:32;;;;;;;10.77;8.55;;;;;;;;;;4190933;34;20132;-56
2021/01/25 05:53:03;;;;;;;9.25;7.65;;;;;;;;;;4190803;34;20118;-57
2021/01/25 05:55:29;;;;;;;9.68;8.68;;;;;;;;;;4190663;34;20197;-57
2021/01/25 05:57:56;;;;;;;9.52;8.43;;;;;;;;;;4190799;34;20098;-57
2021/01/25 06:00:22;;;;;;;8.50;7.57;;;;;;;;;;4177936;34;20129;-57
2021/01/25 06:02:49;;;;;;;8.32;7.25;;;;;;;;;;4177857;34;20097;-57
2021/01/25 06:05:19;;;;;;;8.73;7.82;;;;;;;;;;4177794;34;20113;-57
2021/01/25 06:07:45;;;;;;;8.40;7.43;;;;;;;;;;4177925;34;20496;-58
2021/01/25 06:10:12;;;;;;;8.38;7.32;;;;;;;;;;4177775;34;20129;-57
2021/01/25 06:12:39;;;;;;;8.80;7.70;;;;;;;;;;4166589;34;20094;-58
2021/01/25 06:15:10;;;;;;;8.52;7.68;;;;;;;;;;4190338;34;20122;-58
2021/01/25 06:17:36;;;;;;;9.00;8.10;;;;;;;;;;4166771;34;20095;-58
2021/01/25 06:20:03;;;;;;;8.27;7.47;;;;;;;;;;4166504;34;20113;-57
2021/01/25 06:22:29;;;;;;;8.18;7.07;;;;;;;;;;4178054;34;20455;-58
2021/01/25 06:24:55;;;;;;;8.85;7.55;;;;;;;;;;4155131;34;20105;-57
2021/01/25 06:27:22;;;;;;;8.45;7.55;;;;;;;;;;4155317;34;20093;-57
2021/01/25 06:29:51;;;;;;;8.80;7.85;;;;;;;;;;4190506;34;20122;-58
2021/01/25 06:32:17;;;;;;;8.70;7.18;;;;;;;;;;4190412;34;20582;-57
2021/01/25 06:34:43;;;;;;;10.77;7.60;;;;;;;;;;4190380;34;20125;-57
2021/01/25 06:37:09;;;;;;;10.32;7.20;;;;;;;;;;4177817;34;20110;-57
2021/01/25 06:39:41;;;;;;;9.55;8.07;;;;;;;;;;4178432;34;20133;-57
2021/01/25 06:42:07;;;;;;;8.80;7.80;;;;;;;;;;4180412;34;20125;-57
2021/01/25 06:44:33;;;;;;;8.77;7.87;;;;;;;;;;4191382;34;20156;-58
2021/01/25 06:47:01;;;;;;;9.15;8.23;;;;;;;;;;4204008;34;20209;-59
2021/01/25 06:49:27;;;;;;;9.18;8.13;;;;;;;;;;4204142;34;20129;-58
2021/01/25 06:51:54;;;;;;;10.38;9.05;;;;;;;;;;4191339;34;20122;-57
2021/01/25 06:54:24;;;;;;;9.48;8.32;;;;;;;;;;4204256;34;20121;-57
2021/01/25 06:56:51;;;;;;;11.02;9.00;;;;;;;;;;4204175;34;20110;-59
2021/01/25 06:59:19;;;;;;;10.27;9.10;;;;;;;;;;4203932;34;20092;-58
2021/01/25 07:01:48;;;;;;;9.23;7.72;;;;;;;;;;4204046;34;20145;-58
2021/01/25 07:04:14;;;;;;;7.75;6.70;;;;;;;;;;4203820;34;20114;-58
2021/01/25 07:06:43;;;;;;;8.88;6.68;;;;;;;;;;4203814;34;20137;-58
2021/01/25 07:09:09;;;;;;;8.43;7.20;;;;;;;;;;4191216;34;20078;-59
2021/01/25 07:11:35;;;;;;;7.03;5.97;;;;;;;;;;4203962;34;20169;-58
2021/01/25 07:14:01;;;;;;;7.28;6.00;;;;;;;;;;4190799;34;20138;-58
2021/01/25 07:16:27;;;;;;;6.90;6.20;;;;;;;;;;4190812;34;20176;-57
2021/01/25 07:18:54;;;;;;;7.20;6.50;;;;;;;;;;4203700;34;20137;-58
2021/01/25 07:21:20;;;;;;;8.43;6.82;;;;;;;;;;4203693;34;20136;-58
2021/01/25 07:23:47;;;;;;;7.50;6.70;;;;;;;;;;4203877;34;20125;-58
2021/01/25 07:26:17;;;;;;;8.48;7.18;;;;;;;;;;4205439;34;20522;-57
2021/01/25 07:28:43;;;;;;;8.20;7.40;;;;;;;;;;4205960;34;20096;-58
2021/01/25 07:31:10;;;;;;;8.45;7.00;;;;;;;;;;4205588;34;20098;-58
2021/01/25 07:33:36;;;;;;;8.13;6.85;;;;;;;;;;4205698;34;20169;-58
2021/01/25 07:36:02;;;;;;;8.15;7.35;;;;;;;;;;4206126;34;20518;-57
2021/01/25 07:38:28;;;;;;;10.45;7.57;;;;;;;;;;4205698;34;20117;-60
2021/01/25 07:40:58;;;;;;;7.72;6.93;;;;;;;;;;4172977;34;20122;-59
2021/01/25 07:43:26;;;;;;;8.40;6.90;;;;;;;;;;4179093;34;20121;-58
2021/01/25 07:45:52;;;;;;;7.00;6.30;;;;;;;;;;4179303;34;20203;-59
2021/01/25 07:48:18;;;;;;;8.18;6.87;;;;;;;;;;4191834;34;20522;-59
2021/01/25 07:50:59;;;;;;;7.93;7.12;;;;;;;;;;4191761;34;20455;-59
2021/01/25 07:53:32;;;;;;;6.93;6.07;;;;;;;;;;4192092;34;20142;-58
2021/01/25 07:55:57;;;;;;;6.47;5.62;;;;;;;;;;4191737;34;20114;-58
2021/01/25 07:58:23;;;;;;;6.57;5.72;;;;;;;;;;4179487;34;20126;-58
2021/01/25 08:00:49;;;;;;;6.28;5.68;;;;;;;;;;4190282;34;20157;-59
2021/01/25 08:03:30;;;;;;;7.53;6.37;;;;;;;;;;4191681;34;20514;-58
2021/01/25 08:06:00;;;;;;;7.97;6.25;;;;;;;;;;4190347;34;20199;-61
2021/01/25 08:08:27;;;;;;;6.40;5.65;;;;;;;;;;4178846;34;20741;-59
2021/01/25 08:10:52;;;;;;;6.68;6.07;;;;;;;;;;4167592;34;20119;-60
2021/01/25 08:13:24;;;;;;;6.85;5.68;;;;;;;;;;4167753;34;20113;-57
2021/01/25 08:16:04;;;;;;;7.55;5.53;;;;;;;;;;4168014;34;20095;-58
2021/01/25 08:18:32;;;;;;;6.90;6.20;;;;;;;;;;4167458;34;20095;-58
2021/01/25 08:20:57;;;;;;;7.70;5.90;;;;;;;;;;4191659;34;20125;-60
2021/01/25 08:23:24;;;;;;;8.43;6.12;;;;;;;;;;4167318;34;20122;-60
2021/01/25 08:25:58;;;;;;;6.97;6.25;;;;;;;;;;4178735;34;20234;-59
2021/01/25 08:28:34;;;;;;;6.68;6.07;;;;;;;;;;4167945;34;20214;-59
2021/01/25 08:31:34;;;;;;;8.00;6.62;;;;;;;;;;4168369;34;20122;-60
2021/01/25 08:34:03;;;;;;;6.15;5.55;;;;;;;;;;4178429;34;20152;-60
2021/01/25 08:36:35;;;;;;;6.40;5.68;;;;;;;;;;4167057;34;20166;-59
2021/01/25 08:39:12;;;;;;;9.07;5.95;;;;;;;;;;4191637;34;20515;-59
2021/01/25 08:41:44;;;;;;;6.85;5.97;;;;;;;;;;4203885;34;20612;-59
2021/01/25 08:44:13;;;;;;;7.32;6.45;;;;;;;;;;4181461;34;20113;-61
2021/01/25 08:46:39;;;;;;;8.07;6.53;;;;;;;;;;4180874;34;20129;-59
2021/01/25 08:49:34;;;;;;;7.05;6.35;;;;;;;;;;4180852;34;20180;-60
2021/01/25 08:52:02;;;;;;;7.47;6.70;;;;;;;;;;4205168;34;20108;-59
2021/01/25 08:54:34;;;;;;;7.40;6.57;;;;;;;;;;4204913;34;20455;-59
2021/01/25 08:57:00;;;;;;;7.45;6.68;;;;;;;;;;4180837;34;20538;-63
2021/01/25 08:59:34;;;;;;;8.00;7.20;;;;;;;;;;4192315;34;20128;-58
2021/01/25 09:02:32;;;;;;;6.37;5.78;;;;;;;;;;4204968;34;20109;-61
2021/01/25 09:04:59;;;;;;;7.57;6.78;;;;;;;;;;4194372;34;20138;-62
2021/01/25 09:07:25;;;;;;;7.80;6.90;;;;;;;;;;4204898;34;20118;-61
2021/01/25 09:09:51;;;;;;;7.07;6.25;;;;;;;;;;4204708;34;20205;-62
2021/01/25 09:12:17;;;;;;;8.32;6.95;;;;;;;;;;4192152;34;20109;-62
2021/01/25 09:14:43;;;;;;;9.63;6.65;;;;;;;;;;4180490;34;20112;-60
2021/01/25 09:17:11;;;;;;;8.63;7.00;;;;;;;;;;4204796;34;20105;-60
2021/01/25 09:19:37;;;;;;;7.68;6.87;;;;;;;;;;4204720;34;20126;-61
2021/01/25 09:22:04;;;;;;;7.43;6.65;;;;;;;;;;4180590;34;20106;-60
2021/01/25 09:24:30;;;;;;;7.80;6.32;;;;;;;;;;4204754;34;20098;-59
2021/01/25 09:26:56;;;;;;;7.75;6.95;;;;;;;;;;4204801;34;20109;-60
2021/01/25 09:29:22;;;;;;;7.30;6.30;;;;;;;;;;4204564;34;20186;-60
2021/01/25 09:31:48;;;;;;;8.48;7.10;;;;;;;;;;4180625;34;20529;-60
2021/01/25 09:34:13;;;;;;;8.00;7.15;;;;;;;;;;4204787;34;20136;-61
2021/01/25 09:36:39;;;;;;;7.93;7.10;;;;;;;;;;4191900;34;20137;-61
2021/01/25 09:39:06;;;;;;;8.95;8.05;;;;;;;;;;4204524;34;20620;-60
2021/01/25 09:41:33;;;;;;;8.55;7.65;;;;;;;;;;4204523;34;20190;-60
2021/01/25 09:43:59;;;;;;;7.95;7.12;;;;;;;;;;4204591;34;20182;-60
2021/01/25 09:46:25;;;;;;;7.57;6.80;;;;;;;;;;4204292;34;20137;-59
2021/01/25 09:48:51;;;;;;;7.93;6.87;;;;;;;;;;4203760;34;20422;-58
2021/01/25 09:51:17;;;;;;;7.70;6.68;;;;;;;;;;4191684;34;20116;-61
2021/01/25 09:53:42;;;;;;;8.27;7.07;;;;;;;;;;4191815;34;20110;-60
2021/01/25 09:56:08;;;;;;;8.52;6.40;;;;;;;;;;4204499;34;20141;-59
2021/01/25 09:58:36;;;;;;;6.20;5.28;;;;;;;;;;4180274;34;20113;-58
2021/01/25 10:01:03;;;;;;;7.20;6.45;;;;;;;;;;4191515;34;20205;-58
2021/01/25 10:03:29;;;;;;;7.15;6.45;;;;;;;;;;4204693;34;20209;-59
2021/01/25 10:05:55;;;;;;;7.32;6.62;;;;;;;;;;4204683;34;20133;-58
2021/01/25 10:08:21;;;;;;;9.10;7.65;;;;;;;;;;4180316;34;20615;-58
2021/01/25 10:10:47;;;;;;;8.93;6.80;;;;;;;;;;4204278;34;20113;-58
2021/01/25 10:13:13;;;;;;;8.55;7.70;;;;;;;;;;4180195;34;20136;-58
2021/01/25 10:15:39;;;;;;;7.62;5.68;;;;;;;;;;4182594;34;20192;-61
2021/01/25 10:18:05;;;;;;;9.95;7.22;;;;;;;;;;4183390;34;20140;-61
2021/01/25 10:20:31;;;;;;;7.75;6.95;;;;;;;;;;4175302;34;20115;-60
2021/01/25 10:22:57;;;;;;;8.93;7.70;;;;;;;;;;4201651;34;20213;-61
2021/01/25 10:25:23;;;;;;;7.47;6.78;;;;;;;;;;4176879;34;20125;-61
2021/01/25 10:27:49;;;;;;;8.18;6.43;;;;;;;;;;4177594;34;20254;-61
2021/01/25 10:30:17;;;;;;;7.97;6.07;;;;;;;;;;4177126;34;20114;-61
2021/01/25 10:32:43;;;;;;;7.45;6.37;;;;;;;;;;4185273;34;20098;-62
2021/01/25 10:35:09;;;;;;;6.85;6.25;;;;;;;;;;4178959;34;20518;-62
2021/01/25 10:37:35;;;;;;;7.00;6.30;;;;;;;;;;4154752;34;20217;-59
2021/01/25 10:40:01;;;;;;;6.93;6.25;;;;;;;;;;4188522;34;20516;-59
2021/01/25 10:42:28;;;;;;;6.80;6.20;;;;;;;;;;4166260;34;20206;-60
2021/01/25 10:44:54;;;;;;;7.05;6.35;;;;;;;;;;4189141;34;20130;-59
2021/01/25 10:47:21;;;;;;;7.25;6.55;;;;;;;;;;4189561;34;20106;-59
2021/01/25 10:49:47;;;;;;;7.03;6.32;;;;;;;;;;4183643;34;20448;-59
2021/01/25 10:52:13;;;;;;;7.15;6.45;;;;;;;;;;4189655;34;20428;-60
2021/01/25 10:54:39;;;;;;;7.75;6.57;;;;;;;;;;4176305;34;20118;-62
2021/01/25 10:57:07;;;;;;;7.65;6.87;;;;;;;;;;4177176;34;20531;-61
2021/01/25 10:59:36;;;;;;;7.07;6.22;;;;;;;;;;4184859;34;20709;-60
2021/01/25 11:02:02;;;;;;;7.35;6.68;;;;;;;;;;4205656;34;20521;-59
2021/01/25 11:04:28;;;;;;;7.78;6.75;;;;;;;;;;4204849;34;20106;-59
2021/01/25 11:06:54;;;;;;;7.37;6.68;;;;;;;;;;4205970;34;20090;-60
2021/01/25 11:09:21;;;;;;;6.53;5.93;;;;;;;;;;4155814;34;20528;-61
2021/01/25 11:11:47;;;;;;;6.37;5.78;;;;;;;;;;4179015;34;20117;-60
2021/01/25 11:14:13;;;;;;;5.60;5.03;;;;;;;;;;4191310;34;20110;-61
2021/01/25 11:16:38;;;;;;;6.00;5.40;;;;;;;;;;4201636;34;21057;-60
2021/01/25 11:19:05;;;;;;;5.62;5.00;;;;;;;;;;4205149;34;20118;-59
2021/01/25 11:21:30;;;;;;;5.47;4.97;;;;;;;;;;4192978;34;20217;-61
2021/01/25 11:23:56;;;;;;;5.25;4.37;;;;;;;;;;4192360;34;20137;-61
2021/01/25 11:26:25;;;;;;;5.40;4.57;;;;;;;;;;4205479;34;20129;-61
2021/01/25 11:28:51;;;;;;;5.30;4.47;;;;;;;;;;4204980;34;20542;-63
2021/01/25 11:31:17;;;;;;;5.57;4.87;;;;;;;;;;4205465;34;20193;-63
2021/01/25 11:33:43;;;;;;;5.28;4.78;;;;;;;;;;4177590;34;20142;-60
2021/01/25 11:36:09;;;;;;;5.12;4.62;;;;;;;;;;4191283;34;20438;-64
2021/01/25 11:38:37;;;;;;;5.28;4.78;;;;;;;;;;4181267;34;20106;-60
2021/01/25 11:41:03;;;;;;;5.10;4.60;;;;;;;;;;4205167;34;20137;-60
2021/01/25 11:43:30;;;;;;;5.72;5.12;;;;;;;;;;4204935;34;20117;-64
2021/01/25 11:45:56;;;;;;;8.60;6.70;;;;;;;;;;4181055;34;20221;-63
2021/01/25 11:48:22;;;;;;;6.00;5.40;;;;;;;;;;4178645;34;20114;-61
2021/01/25 11:50:48;;;;;;;5.43;4.93;;;;;;;;;;4205356;34;20217;-60
2021/01/25 11:53:14;;;;;;;6.55;5.85;;;;;;;;;;4180324;34;20113;-60
2021/01/25 11:55:41;;;;;;;6.00;5.40;;;;;;;;;;4191078;34;20197;-61
2021/01/25 11:58:10;;;;;;;7.32;5.10;;;;;;;;;;4178427;34;20145;-61
2021/01/25 12:00:36;;;;;;;5.18;4.68;;;;;;;;;;4191510;34;20117;-63
2021/01/25 12:03:02;;;;;;;5.65;5.07;;;;;;;;;;4191300;34;20555;-61
2021/01/25 12:05:28;;;;;;;5.47;4.97;;;;;;;;;;4177868;34;20101;-61
2021/01/25 12:07:54;;;;;;;6.07;5.40;;;;;;;;;;4178349;34;20462;-61
2021/01/25 12:10:20;;;;;;;6.12;5.30;;;;;;;;;;4190383;34;20122;-61
2021/01/25 12:12:46;;;;;;;5.75;5.15;;;;;;;;;;4190460;34;20210;-61
2021/01/25 12:15:12;;;;;;;6.57;5.55;;;;;;;;;;4190755;34;20137;-65
2021/01/25 12:17:39;;;;;;;5.72;5.20;;;;;;;;;;4178115;34;20118;-62
2021/01/25 12:20:06;;;;;;;6.30;5.55;;;;;;;;;;4190739;34;20174;-61
2021/01/25 12:22:32;;;;;;;5.90;5.30;;;;;;;;;;4178433;34;20107;-61
2021/01/25 12:24:58;;;;;;;6.25;5.65;;;;;;;;;;4178076;34;20498;-60
2021/01/25 12:27:24;;;;;;;6.32;5.53;;;;;;;;;;4190986;34;20583;-61
2021/01/25 12:29:49;;;;;;;6.53;5.93;;;;;;;;;;4200516;34;20134;-60
2021/01/25 12:32:15;;;;;;;8.63;7.25;;;;;;;;;;4203427;34;20237;-58
2021/01/25 12:34:42;;;;;;;7.32;6.07;;;;;;;;;;4204302;34;20129;-58
2021/01/25 12:37:08;;;;;;;7.10;6.40;;;;;;;;;;4204607;34;20124;-58
2021/01/25 12:39:34;;;;;;;7.28;6.47;;;;;;;;;;4204560;34;20126;-59
2021/01/25 12:42:00;;;;;;;7.22;6.53;;;;;;;;;;4204912;34;20471;-60
2021/01/25 12:44:25;;;;;;;8.27;7.05;;;;;;;;;;4168251;34;20137;-59
2021/01/25 12:46:52;;;;;;;6.90;6.20;;;;;;;;;;4204025;34;20218;-59
2021/01/25 12:49:19;;;;;;;7.32;6.62;;;;;;;;;;4204504;34;20541;-58
2021/01/25 12:51:45;;;;;;;8.00;5.78;;;;;;;;;;4192053;34;20104;-58
2021/01/25 12:54:11;;;;;;;6.93;6.12;;;;;;;;;;4191941;34;20108;-58
2021/01/25 12:56:37;;;;;;;6.62;6.03;;;;;;;;;;4192102;34;20474;-58
2021/01/25 12:59:04;;;;;;;7.50;6.80;;;;;;;;;;4205014;34;20125;-59
2021/01/25 13:01:30;;;;;;;8.45;6.70;;;;;;;;;;4169740;34;20102;-60
2021/01/25 13:03:56;;;;;;;7.50;6.82;;;;;;;;;;4205268;34;20105;-59
2021/01/25 13:06:22;;;;;;;7.32;6.53;;;;;;;;;;4205005;34;20109;-60
2021/01/25 13:08:48;;;;;;;7.68;6.97;;;;;;;;;;4204096;34;20130;-61
2021/01/25 13:11:14;;;;;;;8.60;6.93;;;;;;;;;;4191863;34;20218;-65
2021/01/25 13:13:40;;;;;;;7.32;6.30;;;;;;;;;;4171494;34;20114;-60
2021/01/25 13:16:07;;;;;;;7.93;7.22;;;;;;;;;;4153801;34;20118;-59
2021/01/25 13:18:33;;;;;;;7.65;6.95;;;;;;;;;;4176609;34;20106;-60
2021/01/25 13:21:00;;;;;;;9.18;8.38;;;;;;;;;;4166795;34;20098;-59
2021/01/25 13:23:26;;;;;;;8.25;7.45;;;;;;;;;;4190776;34;20282;-58
2021/01/25 13:25:52;;;;;;;7.70;6.93;;;;;;;;;;4191046;34;20133;-58
2021/01/25 13:28:18;;;;;;;8.38;7.57;;;;;;;;;;4178455;34;20110;-59
2021/01/25 13:30:44;;;;;;;8.43;7.65;;;;;;;;;;4190595;34;20094;-59
2021/01/25 13:33:10;;;;;;;8.50;7.80;;;;;;;;;;4178216;34;20170;-59
2021/01/25 13:35:35;;;;;;;8.15;6.80;;;;;;;;;;4190793;34;20181;-59
2021/01/25 13:38:01;;;;;;;7.65;6.85;;;;;;;;;;4177874;34;20106;-60
2021/01/25 13:40:29;;;;;;;8.43;7.55;;;;;;;;;;4154520;34;20432;-60
2021/01/25 13:42:55;;;;;;;7.68;6.97;;;;;;;;;;4190873;34;20590;-58
2021/01/25 13:45:23;;;;;;;9.52;7.55;;;;;;;;;;4193812;34;20445;-59
2021/01/25 13:47:49;;;;;;;8.93;7.93;;;;;;;;;;4200446;34;20132;-61
2021/01/25 13:50:15;;;;;;;8.93;8.02;;;;;;;;;;4180528;34;20090;-59
2021/01/25 13:52:41;;;;;;;8.18;7.28;;;;;;;;;;4179095;34;20098;-60
2021/01/25 13:55:08;;;;;;;7.85;6.97;;;;;;;;;;4179945;34;20638;-59
2021/01/25 13:57:37;;;;;;;8.55;7.32;;;;;;;;;;4180479;34;20106;-59
2021/01/25 14:00:09;;;;;;;8.50;7.57;;;;;;;;;;4204401;34;20559;-60
2021/01/25 14:02:35;;;;;;;7.87;6.72;;;;;;;;;;4195809;34;20112;-61
2021/01/25 14:05:01;;;;;;;8.00;6.85;;;;;;;;;;4190333;34;20154;-61
2021/01/25 14:07:27;;;;;;;8.02;6.57;;;;;;;;;;4177877;34;20114;-60
2021/01/25 14:09:53;;;;;;;7.60;6.90;;;;;;;;;;4177830;34;20111;-60
2021/01/25 14:12:20;;;;;;;7.50;6.65;;;;;;;;;;4166594;34;20133;-62
2021/01/25 14:14:46;;;;;;;7.82;7.03;;;;;;;;;;4190396;34;20104;-60
2021/01/25 14:17:12;;;;;;;7.07;6.37;;;;;;;;;;4190503;34;20186;-62
2021/01/25 14:19:39;;;;;;;8.07;7.28;;;;;;;;;;4161949;34;20118;-60
2021/01/25 14:22:05;;;;;;;8.32;7.53;;;;;;;;;;4182755;34;20098;-60
2021/01/25 14:24:31;;;;;;;8.77;7.87;;;;;;;;;;4195681;34;20549;-61
2021/01/25 14:26:57;;;;;;;7.70;6.90;;;;;;;;;;4165148;34;20435;-62
2021/01/25 14:29:24;;;;;;;7.90;7.20;;;;;;;;;;4182028;34;20197;-60
2021/01/25 14:31:50;;;;;;;8.05;7.22;;;;;;;;;;4189147;34;20121;-60
2021/01/25 14:34:16;;;;;;;8.82;8.00;;;;;;;;;;4172821;34;20210;-59
2021/01/25 14:36:43;;;;;;;7.80;7.10;;;;;;;;;;4192021;34;20637;-61
2021/01/25 14:39:09;;;;;;;9.48;8.57;;;;;;;;;;4206283;34;20423;-60
2021/01/25 14:41:35;;;;;;;8.35;7.45;;;;;;;;;;4202500;34;20145;-61
2021/01/25 14:44:01;;;;;;;8.50;7.60;;;;;;;;;;4179721;34;20452;-60
2021/01/25 14:46:28;;;;;;;8.88;7.97;;;;;;;;;;4168328;34;20118;-58